sensor_id;sensor_type;location;lat;lon;timestamp;P1;durP1;ratioP1;P2;durP2;ratioP2
15616;SDS011;7908;51.688;7.130;2023-04-23T00:00:12;55.33;;;38.40;;
15616;SDS011;7908;51.688;7.130;2023-04-23T00:02:43;55.13;;;40.77;;
15616;SDS011;7908;51.688;7.130;2023-04-23T00:05:12;49.30;;;36.57;;
15616;SDS011;7908;51.688;7.130;2023-04-23T00:07:42;53.47;;;39.57;;
15616;SDS011;7908;51.688;7.130;2023-04-23T00:10:11;61.73;;;43.00;;
15616;SDS011;7908;51.688;7.130;2023-04-23T00:12:40;54.03;;;40.03;;
15616;SDS011;7908;51.688;7.130;2023-04-23T00:15:12;59.47;;;41.07;;
15616;SDS011;7908;51.688;7.130;2023-04-23T00:17:42;58.87;;;41.80;;
15616;SDS011;7908;51.688;7.130;2023-04-23T00:20:10;57.17;;;40.70;;
15616;SDS011;7908;51.688;7.130;2023-04-23T00:22:39;57.83;;;40.60;;
15616;SDS011;7908;51.688;7.130;2023-04-23T00:25:08;57.33;;;41.23;;
15616;SDS011;7908;51.688;7.130;2023-04-23T00:27:37;52.17;;;38.87;;
15616;SDS011;7908;51.688;7.130;2023-04-23T00:30:06;58.63;;;43.60;;
15616;SDS011;7908;51.688;7.130;2023-04-23T00:32:37;56.40;;;40.80;;
15616;SDS011;7908;51.688;7.130;2023-04-23T00:35:06;53.53;;;38.80;;
15616;SDS011;7908;51.688;7.130;2023-04-23T00:37:35;55.17;;;39.73;;
15616;SDS011;7908;51.688;7.130;2023-04-23T00:40:04;52.73;;;38.27;;
15616;SDS011;7908;51.688;7.130;2023-04-23T00:42:35;56.57;;;40.97;;
15616;SDS011;7908;51.688;7.130;2023-04-23T00:45:06;57.30;;;40.30;;
15616;SDS011;7908;51.688;7.130;2023-04-23T00:47:35;56.07;;;40.03;;
15616;SDS011;7908;51.688;7.130;2023-04-23T00:50:06;56.73;;;40.53;;
15616;SDS011;7908;51.688;7.130;2023-04-23T00:52:35;55.77;;;40.17;;
15616;SDS011;7908;51.688;7.130;2023-04-23T00:55:06;53.10;;;37.63;;
15616;SDS011;7908;51.688;7.130;2023-04-23T00:57:35;60.23;;;42.87;;
15616;SDS011;7908;51.688;7.130;2023-04-23T01:00:06;58.33;;;42.10;;
15616;SDS011;7908;51.688;7.130;2023-04-23T01:02:35;60.07;;;40.97;;
15616;SDS011;7908;51.688;7.130;2023-04-23T01:05:06;64.30;;;44.73;;
15616;SDS011;7908;51.688;7.130;2023-04-23T01:07:37;62.97;;;43.37;;
15616;SDS011;7908;51.688;7.130;2023-04-23T01:10:06;62.90;;;43.83;;
15616;SDS011;7908;51.688;7.130;2023-04-23T01:12:36;68.23;;;44.30;;
15616;SDS011;7908;51.688;7.130;2023-04-23T01:15:06;69.63;;;44.90;;
15616;SDS011;7908;51.688;7.130;2023-04-23T01:17:35;68.93;;;45.60;;
15616;SDS011;7908;51.688;7.130;2023-04-23T01:20:06;68.37;;;45.20;;
15616;SDS011;7908;51.688;7.130;2023-04-23T01:22:37;72.23;;;47.00;;
15616;SDS011;7908;51.688;7.130;2023-04-23T01:25:06;67.20;;;45.57;;
15616;SDS011;7908;51.688;7.130;2023-04-23T01:27:36;74.67;;;48.63;;
15616;SDS011;7908;51.688;7.130;2023-04-23T01:30:06;77.63;;;48.37;;
15616;SDS011;7908;51.688;7.130;2023-04-23T01:32:36;78.40;;;49.27;;
15616;SDS011;7908;51.688;7.130;2023-04-23T01:35:07;78.23;;;49.33;;
15616;SDS011;7908;51.688;7.130;2023-04-23T01:37:40;76.73;;;49.10;;
15616;SDS011;7908;51.688;7.130;2023-04-23T01:40:10;73.67;;;48.57;;
15616;SDS011;7908;51.688;7.130;2023-04-23T01:42:39;69.87;;;45.97;;
15616;SDS011;7908;51.688;7.130;2023-04-23T01:45:09;72.90;;;46.53;;
15616;SDS011;7908;51.688;7.130;2023-04-23T01:47:38;70.07;;;45.27;;
15616;SDS011;7908;51.688;7.130;2023-04-23T01:50:07;69.23;;;45.43;;
15616;SDS011;7908;51.688;7.130;2023-04-23T01:52:36;68.73;;;46.00;;
15616;SDS011;7908;51.688;7.130;2023-04-23T01:55:07;67.10;;;46.10;;
15616;SDS011;7908;51.688;7.130;2023-04-23T01:57:36;67.90;;;46.03;;
15616;SDS011;7908;51.688;7.130;2023-04-23T02:00:06;68.10;;;45.10;;
15616;SDS011;7908;51.688;7.130;2023-04-23T02:02:37;70.70;;;47.07;;
15616;SDS011;7908;51.688;7.130;2023-04-23T02:05:09;66.97;;;44.20;;
15616;SDS011;7908;51.688;7.130;2023-04-23T02:07:39;68.03;;;42.57;;
15616;SDS011;7908;51.688;7.130;2023-04-23T02:10:10;70.70;;;45.10;;
15616;SDS011;7908;51.688;7.130;2023-04-23T02:12:39;71.10;;;46.80;;
15616;SDS011;7908;51.688;7.130;2023-04-23T02:15:08;73.37;;;44.97;;
15616;SDS011;7908;51.688;7.130;2023-04-23T02:17:38;73.77;;;46.47;;
15616;SDS011;7908;51.688;7.130;2023-04-23T02:20:07;79.67;;;46.83;;
15616;SDS011;7908;51.688;7.130;2023-04-23T02:22:37;74.50;;;47.23;;
15616;SDS011;7908;51.688;7.130;2023-04-23T02:25:07;73.60;;;46.03;;
15616;SDS011;7908;51.688;7.130;2023-04-23T02:27:37;75.60;;;47.27;;
15616;SDS011;7908;51.688;7.130;2023-04-23T02:30:06;69.87;;;43.90;;
15616;SDS011;7908;51.688;7.130;2023-04-23T02:32:37;67.70;;;43.30;;
15616;SDS011;7908;51.688;7.130;2023-04-23T02:35:07;67.33;;;43.43;;
15616;SDS011;7908;51.688;7.130;2023-04-23T02:37:36;68.53;;;43.07;;
15616;SDS011;7908;51.688;7.130;2023-04-23T02:40:05;78.40;;;46.93;;
15616;SDS011;7908;51.688;7.130;2023-04-23T02:42:35;85.90;;;51.27;;
15616;SDS011;7908;51.688;7.130;2023-04-23T02:45:06;83.93;;;49.23;;
15616;SDS011;7908;51.688;7.130;2023-04-23T02:47:35;83.10;;;48.70;;
15616;SDS011;7908;51.688;7.130;2023-04-23T02:50:05;82.33;;;48.80;;
15616;SDS011;7908;51.688;7.130;2023-04-23T02:52:34;81.70;;;47.97;;
15616;SDS011;7908;51.688;7.130;2023-04-23T02:55:03;81.97;;;48.40;;
15616;SDS011;7908;51.688;7.130;2023-04-23T02:57:32;81.13;;;49.67;;
15616;SDS011;7908;51.688;7.130;2023-04-23T03:00:01;76.83;;;48.77;;
15616;SDS011;7908;51.688;7.130;2023-04-23T03:02:33;78.07;;;48.53;;
15616;SDS011;7908;51.688;7.130;2023-04-23T03:05:02;79.83;;;49.37;;
15616;SDS011;7908;51.688;7.130;2023-04-23T03:07:32;81.90;;;49.93;;
15616;SDS011;7908;51.688;7.130;2023-04-23T03:10:01;77.00;;;48.30;;
15616;SDS011;7908;51.688;7.130;2023-04-23T03:12:29;72.87;;;48.00;;
15616;SDS011;7908;51.688;7.130;2023-04-23T03:14:58;76.30;;;47.97;;
15616;SDS011;7908;51.688;7.130;2023-04-23T03:17:27;77.73;;;46.87;;
15616;SDS011;7908;51.688;7.130;2023-04-23T03:19:57;79.23;;;49.97;;
15616;SDS011;7908;51.688;7.130;2023-04-23T03:22:26;83.93;;;50.83;;
15616;SDS011;7908;51.688;7.130;2023-04-23T03:24:55;87.93;;;50.33;;
15616;SDS011;7908;51.688;7.130;2023-04-23T03:27:23;85.90;;;51.27;;
15616;SDS011;7908;51.688;7.130;2023-04-23T03:29:52;90.67;;;52.73;;
15616;SDS011;7908;51.688;7.130;2023-04-23T03:32:21;96.67;;;55.33;;
15616;SDS011;7908;51.688;7.130;2023-04-23T03:34:49;96.63;;;55.63;;
15616;SDS011;7908;51.688;7.130;2023-04-23T03:37:19;94.10;;;52.90;;
15616;SDS011;7908;51.688;7.130;2023-04-23T03:39:48;96.97;;;55.67;;
15616;SDS011;7908;51.688;7.130;2023-04-23T03:42:17;96.07;;;54.40;;
15616;SDS011;7908;51.688;7.130;2023-04-23T03:44:45;96.97;;;55.03;;
15616;SDS011;7908;51.688;7.130;2023-04-23T03:47:14;101.73;;;56.50;;
15616;SDS011;7908;51.688;7.130;2023-04-23T03:49:42;101.40;;;56.93;;
15616;SDS011;7908;51.688;7.130;2023-04-23T03:52:11;93.77;;;53.67;;
15616;SDS011;7908;51.688;7.130;2023-04-23T03:54:41;86.53;;;49.63;;
15616;SDS011;7908;51.688;7.130;2023-04-23T03:57:10;86.70;;;49.80;;
15616;SDS011;7908;51.688;7.130;2023-04-23T03:59:39;78.23;;;46.80;;
15616;SDS011;7908;51.688;7.130;2023-04-23T04:02:07;79.63;;;47.10;;
15616;SDS011;7908;51.688;7.130;2023-04-23T04:04:37;80.13;;;47.40;;
15616;SDS011;7908;51.688;7.130;2023-04-23T04:07:06;77.67;;;46.07;;
15616;SDS011;7908;51.688;7.130;2023-04-23T04:09:37;71.20;;;43.17;;
15616;SDS011;7908;51.688;7.130;2023-04-23T04:12:08;68.27;;;42.07;;
15616;SDS011;7908;51.688;7.130;2023-04-23T04:14:37;76.03;;;44.07;;
15616;SDS011;7908;51.688;7.130;2023-04-23T04:17:06;76.57;;;48.27;;
15616;SDS011;7908;51.688;7.130;2023-04-23T04:19:35;77.67;;;48.60;;
15616;SDS011;7908;51.688;7.130;2023-04-23T04:22:04;76.03;;;46.50;;
15616;SDS011;7908;51.688;7.130;2023-04-23T04:24:32;83.63;;;50.63;;
15616;SDS011;7908;51.688;7.130;2023-04-23T04:27:01;76.57;;;48.67;;
15616;SDS011;7908;51.688;7.130;2023-04-23T04:29:32;72.87;;;48.10;;
15616;SDS011;7908;51.688;7.130;2023-04-23T04:32:00;74.67;;;46.90;;
15616;SDS011;7908;51.688;7.130;2023-04-23T04:34:30;74.67;;;47.53;;
15616;SDS011;7908;51.688;7.130;2023-04-23T04:36:59;71.70;;;46.47;;
15616;SDS011;7908;51.688;7.130;2023-04-23T04:39:28;70.07;;;44.47;;
15616;SDS011;7908;51.688;7.130;2023-04-23T04:41:56;71.87;;;43.87;;
15616;SDS011;7908;51.688;7.130;2023-04-23T04:44:25;66.67;;;41.37;;
15616;SDS011;7908;51.688;7.130;2023-04-23T04:46:55;66.10;;;39.03;;
15616;SDS011;7908;51.688;7.130;2023-04-23T04:49:24;71.00;;;42.73;;
15616;SDS011;7908;51.688;7.130;2023-04-23T04:51:53;60.30;;;41.07;;
15616;SDS011;7908;51.688;7.130;2023-04-23T04:54:21;68.07;;;39.77;;
15616;SDS011;7908;51.688;7.130;2023-04-23T04:56:50;58.80;;;38.43;;
15616;SDS011;7908;51.688;7.130;2023-04-23T04:59:19;71.10;;;42.43;;
15616;SDS011;7908;51.688;7.130;2023-04-23T05:01:47;68.80;;;39.93;;
15616;SDS011;7908;51.688;7.130;2023-04-23T05:04:17;65.67;;;40.37;;
15616;SDS011;7908;51.688;7.130;2023-04-23T05:06:46;68.60;;;40.53;;
15616;SDS011;7908;51.688;7.130;2023-04-23T05:09:15;66.23;;;39.70;;
15616;SDS011;7908;51.688;7.130;2023-04-23T05:11:44;70.40;;;42.93;;
15616;SDS011;7908;51.688;7.130;2023-04-23T05:14:12;63.97;;;40.33;;
15616;SDS011;7908;51.688;7.130;2023-04-23T05:16:41;62.60;;;40.90;;
15616;SDS011;7908;51.688;7.130;2023-04-23T05:19:10;64.47;;;41.13;;
15616;SDS011;7908;51.688;7.130;2023-04-23T05:21:40;62.80;;;40.90;;
15616;SDS011;7908;51.688;7.130;2023-04-23T05:24:09;58.87;;;39.43;;
15616;SDS011;7908;51.688;7.130;2023-04-23T05:26:37;62.03;;;40.57;;
15616;SDS011;7908;51.688;7.130;2023-04-23T05:29:06;64.37;;;41.97;;
15616;SDS011;7908;51.688;7.130;2023-04-23T05:31:35;57.20;;;41.37;;
15616;SDS011;7908;51.688;7.130;2023-04-23T05:34:04;60.87;;;42.07;;
15616;SDS011;7908;51.688;7.130;2023-04-23T05:36:32;59.37;;;43.10;;
15616;SDS011;7908;51.688;7.130;2023-04-23T05:39:03;55.93;;;40.70;;
15616;SDS011;7908;51.688;7.130;2023-04-23T05:41:32;50.33;;;39.00;;
15616;SDS011;7908;51.688;7.130;2023-04-23T05:44:01;48.57;;;37.53;;
15616;SDS011;7908;51.688;7.130;2023-04-23T05:46:29;45.63;;;36.63;;
15616;SDS011;7908;51.688;7.130;2023-04-23T05:48:58;39.60;;;32.67;;
15616;SDS011;7908;51.688;7.130;2023-04-23T05:51:27;37.57;;;31.40;;
15616;SDS011;7908;51.688;7.130;2023-04-23T05:53:55;35.20;;;30.23;;
15616;SDS011;7908;51.688;7.130;2023-04-23T05:56:25;30.17;;;26.87;;
15616;SDS011;7908;51.688;7.130;2023-04-23T05:58:54;29.87;;;25.10;;
15616;SDS011;7908;51.688;7.130;2023-04-23T06:01:23;26.97;;;24.07;;
15616;SDS011;7908;51.688;7.130;2023-04-23T06:03:52;25.97;;;23.30;;
15616;SDS011;7908;51.688;7.130;2023-04-23T06:06:21;24.03;;;21.47;;
15616;SDS011;7908;51.688;7.130;2023-04-23T06:08:49;23.73;;;20.70;;
15616;SDS011;7908;51.688;7.130;2023-04-23T06:11:18;21.13;;;18.93;;
15616;SDS011;7908;51.688;7.130;2023-04-23T06:13:49;21.67;;;19.37;;
15616;SDS011;7908;51.688;7.130;2023-04-23T06:16:17;20.13;;;18.07;;
15616;SDS011;7908;51.688;7.130;2023-04-23T06:18:46;20.53;;;18.43;;
15616;SDS011;7908;51.688;7.130;2023-04-23T06:21:15;20.33;;;17.67;;
15616;SDS011;7908;51.688;7.130;2023-04-23T06:23:45;19.47;;;17.10;;
15616;SDS011;7908;51.688;7.130;2023-04-23T06:26:13;19.50;;;17.40;;
15616;SDS011;7908;51.688;7.130;2023-04-23T06:28:43;18.07;;;16.17;;
15616;SDS011;7908;51.688;7.130;2023-04-23T06:31:14;18.53;;;16.73;;
15616;SDS011;7908;51.688;7.130;2023-04-23T06:33:42;19.33;;;17.30;;
15616;SDS011;7908;51.688;7.130;2023-04-23T06:36:11;17.63;;;15.60;;
15616;SDS011;7908;51.688;7.130;2023-04-23T06:38:40;17.93;;;16.07;;
15616;SDS011;7908;51.688;7.130;2023-04-23T06:41:10;17.73;;;15.93;;
15616;SDS011;7908;51.688;7.130;2023-04-23T06:43:39;18.00;;;16.10;;
15616;SDS011;7908;51.688;7.130;2023-04-23T06:46:08;17.67;;;15.93;;
15616;SDS011;7908;51.688;7.130;2023-04-23T06:48:38;17.73;;;15.93;;
15616;SDS011;7908;51.688;7.130;2023-04-23T06:51:07;18.40;;;16.60;;
15616;SDS011;7908;51.688;7.130;2023-04-23T06:53:36;16.27;;;14.47;;
15616;SDS011;7908;51.688;7.130;2023-04-23T06:56:05;17.90;;;16.00;;
15616;SDS011;7908;51.688;7.130;2023-04-23T06:58:34;17.90;;;16.10;;
15616;SDS011;7908;51.688;7.130;2023-04-23T07:01:03;16.50;;;14.80;;
15616;SDS011;7908;51.688;7.130;2023-04-23T07:03:33;15.83;;;14.17;;
15616;SDS011;7908;51.688;7.130;2023-04-23T07:06:04;15.57;;;13.77;;
15616;SDS011;7908;51.688;7.130;2023-04-23T07:08:33;15.40;;;13.80;;
15616;SDS011;7908;51.688;7.130;2023-04-23T07:11:01;15.40;;;13.90;;
15616;SDS011;7908;51.688;7.130;2023-04-23T07:13:31;15.40;;;13.90;;
15616;SDS011;7908;51.688;7.130;2023-04-23T07:15:59;15.70;;;13.03;;
15616;SDS011;7908;51.688;7.130;2023-04-23T07:18:28;14.23;;;12.87;;
15616;SDS011;7908;51.688;7.130;2023-04-23T07:20:57;13.30;;;12.00;;
15616;SDS011;7908;51.688;7.130;2023-04-23T07:23:27;13.87;;;12.17;;
15616;SDS011;7908;51.688;7.130;2023-04-23T07:25:56;13.00;;;11.70;;
15616;SDS011;7908;51.688;7.130;2023-04-23T07:28:24;11.83;;;10.70;;
15616;SDS011;7908;51.688;7.130;2023-04-23T07:30:54;12.97;;;11.23;;
15616;SDS011;7908;51.688;7.130;2023-04-23T07:33:23;11.53;;;10.30;;
15616;SDS011;7908;51.688;7.130;2023-04-23T07:35:52;12.90;;;10.33;;
15616;SDS011;7908;51.688;7.130;2023-04-23T07:38:21;12.70;;;10.43;;
15616;SDS011;7908;51.688;7.130;2023-04-23T07:40:51;13.07;;;10.47;;
15616;SDS011;7908;51.688;7.130;2023-04-23T07:43:20;10.30;;;9.17;;
15616;SDS011;7908;51.688;7.130;2023-04-23T07:45:49;10.63;;;9.10;;
15616;SDS011;7908;51.688;7.130;2023-04-23T07:48:18;11.10;;;9.33;;
15616;SDS011;7908;51.688;7.130;2023-04-23T07:50:47;9.30;;;8.40;;
15616;SDS011;7908;51.688;7.130;2023-04-23T07:53:16;9.60;;;8.10;;
15616;SDS011;7908;51.688;7.130;2023-04-23T07:55:45;8.83;;;7.93;;
15616;SDS011;7908;51.688;7.130;2023-04-23T07:58:15;9.53;;;7.10;;
15616;SDS011;7908;51.688;7.130;2023-04-23T08:00:44;8.80;;;7.90;;
15616;SDS011;7908;51.688;7.130;2023-04-23T08:03:12;9.27;;;7.50;;
15616;SDS011;7908;51.688;7.130;2023-04-23T08:05:41;8.10;;;7.17;;
15616;SDS011;7908;51.688;7.130;2023-04-23T08:08:11;8.33;;;6.77;;
15616;SDS011;7908;51.688;7.130;2023-04-23T08:10:40;7.63;;;6.83;;
15616;SDS011;7908;51.688;7.130;2023-04-23T08:13:09;7.80;;;7.00;;
15616;SDS011;7908;51.688;7.130;2023-04-23T08:15:39;8.17;;;6.80;;
15616;SDS011;7908;51.688;7.130;2023-04-23T08:18:08;7.07;;;6.20;;
15616;SDS011;7908;51.688;7.130;2023-04-23T08:20:37;10.30;;;6.70;;
15616;SDS011;7908;51.688;7.130;2023-04-23T08:23:06;7.20;;;6.37;;
15616;SDS011;7908;51.688;7.130;2023-04-23T08:25:35;8.67;;;5.90;;
15616;SDS011;7908;51.688;7.130;2023-04-23T08:28:04;8.00;;;5.87;;
15616;SDS011;7908;51.688;7.130;2023-04-23T08:30:33;8.17;;;5.67;;
15616;SDS011;7908;51.688;7.130;2023-04-23T08:33:03;7.37;;;5.60;;
15616;SDS011;7908;51.688;7.130;2023-04-23T08:35:32;8.30;;;5.60;;
15616;SDS011;7908;51.688;7.130;2023-04-23T08:38:03;6.10;;;5.13;;
15616;SDS011;7908;51.688;7.130;2023-04-23T08:40:32;8.23;;;4.67;;
15616;SDS011;7908;51.688;7.130;2023-04-23T08:43:06;8.20;;;5.90;;
15616;SDS011;7908;51.688;7.130;2023-04-23T08:45:40;5.60;;;4.57;;
15616;SDS011;7908;51.688;7.130;2023-04-23T08:48:14;6.73;;;4.53;;
15616;SDS011;7908;51.688;7.130;2023-04-23T08:50:44;6.27;;;4.43;;
15616;SDS011;7908;51.688;7.130;2023-04-23T08:53:19;6.60;;;4.20;;
15616;SDS011;7908;51.688;7.130;2023-04-23T08:55:54;8.53;;;4.27;;
15616;SDS011;7908;51.688;7.130;2023-04-23T08:58:24;6.33;;;4.03;;
15616;SDS011;7908;51.688;7.130;2023-04-23T09:00:54;8.67;;;4.67;;
15616;SDS011;7908;51.688;7.130;2023-04-23T09:03:25;9.90;;;4.27;;
15616;SDS011;7908;51.688;7.130;2023-04-23T09:05:56;5.17;;;3.93;;
15616;SDS011;7908;51.688;7.130;2023-04-23T09:08:26;9.30;;;4.87;;
15616;SDS011;7908;51.688;7.130;2023-04-23T09:10:56;7.80;;;4.73;;
15616;SDS011;7908;51.688;7.130;2023-04-23T09:13:28;6.23;;;4.50;;
15616;SDS011;7908;51.688;7.130;2023-04-23T09:15:58;6.17;;;3.70;;
15616;SDS011;7908;51.688;7.130;2023-04-23T09:18:30;7.67;;;4.10;;
15616;SDS011;7908;51.688;7.130;2023-04-23T09:21:00;6.33;;;3.67;;
15616;SDS011;7908;51.688;7.130;2023-04-23T09:23:29;5.47;;;3.87;;
15616;SDS011;7908;51.688;7.130;2023-04-23T09:26:03;5.40;;;3.50;;
15616;SDS011;7908;51.688;7.130;2023-04-23T09:28:33;6.07;;;3.03;;
15616;SDS011;7908;51.688;7.130;2023-04-23T09:31:03;8.73;;;3.63;;
15616;SDS011;7908;51.688;7.130;2023-04-23T09:33:35;4.77;;;2.83;;
15616;SDS011;7908;51.688;7.130;2023-04-23T09:36:04;5.80;;;3.30;;
15616;SDS011;7908;51.688;7.130;2023-04-23T09:38:38;5.40;;;3.13;;
15616;SDS011;7908;51.688;7.130;2023-04-23T09:41:21;6.40;;;3.17;;
15616;SDS011;7908;51.688;7.130;2023-04-23T09:43:51;5.77;;;3.07;;
15616;SDS011;7908;51.688;7.130;2023-04-23T09:46:32;5.13;;;2.77;;
15616;SDS011;7908;51.688;7.130;2023-04-23T09:49:05;5.10;;;3.03;;
15616;SDS011;7908;51.688;7.130;2023-04-23T09:51:38;4.73;;;2.77;;
15616;SDS011;7908;51.688;7.130;2023-04-23T09:54:11;4.93;;;2.00;;
15616;SDS011;7908;51.688;7.130;2023-04-23T09:56:42;6.57;;;2.40;;
15616;SDS011;7908;51.688;7.130;2023-04-23T09:59:18;3.90;;;2.40;;
15616;SDS011;7908;51.688;7.130;2023-04-23T10:02:05;5.27;;;2.17;;
15616;SDS011;7908;51.688;7.130;2023-04-23T10:04:40;5.33;;;2.40;;
15616;SDS011;7908;51.688;7.130;2023-04-23T10:07:12;6.43;;;2.60;;
15616;SDS011;7908;51.688;7.130;2023-04-23T10:09:46;4.83;;;2.40;;
15616;SDS011;7908;51.688;7.130;2023-04-23T10:12:15;5.77;;;2.47;;
15616;SDS011;7908;51.688;7.130;2023-04-23T10:14:47;5.13;;;2.03;;
15616;SDS011;7908;51.688;7.130;2023-04-23T10:17:19;5.03;;;2.57;;
15616;SDS011;7908;51.688;7.130;2023-04-23T10:19:50;5.53;;;2.77;;
15616;SDS011;7908;51.688;7.130;2023-04-23T10:22:19;4.27;;;2.30;;
15616;SDS011;7908;51.688;7.130;2023-04-23T10:24:50;5.33;;;2.23;;
15616;SDS011;7908;51.688;7.130;2023-04-23T10:27:25;6.30;;;2.30;;
15616;SDS011;7908;51.688;7.130;2023-04-23T10:30:16;4.07;;;2.53;;
15616;SDS011;7908;51.688;7.130;2023-04-23T10:32:46;6.93;;;2.80;;
15616;SDS011;7908;51.688;7.130;2023-04-23T10:35:18;5.83;;;2.20;;
15616;SDS011;7908;51.688;7.130;2023-04-23T10:37:46;4.20;;;2.27;;
15616;SDS011;7908;51.688;7.130;2023-04-23T10:40:18;4.40;;;2.23;;
15616;SDS011;7908;51.688;7.130;2023-04-23T10:42:52;3.20;;;2.10;;
15616;SDS011;7908;51.688;7.130;2023-04-23T10:45:21;4.70;;;2.20;;
15616;SDS011;7908;51.688;7.130;2023-04-23T10:47:52;4.70;;;2.00;;
15616;SDS011;7908;51.688;7.130;2023-04-23T10:50:24;3.60;;;1.87;;
15616;SDS011;7908;51.688;7.130;2023-04-23T10:52:54;4.17;;;2.40;;
15616;SDS011;7908;51.688;7.130;2023-04-23T10:55:24;4.73;;;2.50;;
15616;SDS011;7908;51.688;7.130;2023-04-23T10:57:55;3.53;;;2.40;;
15616;SDS011;7908;51.688;7.130;2023-04-23T11:00:29;3.00;;;1.83;;
15616;SDS011;7908;51.688;7.130;2023-04-23T11:03:30;3.23;;;1.80;;
15616;SDS011;7908;51.688;7.130;2023-04-23T11:06:12;3.70;;;2.20;;
15616;SDS011;7908;51.688;7.130;2023-04-23T11:08:52;3.70;;;2.20;;
15616;SDS011;7908;51.688;7.130;2023-04-23T11:11:23;4.10;;;2.10;;
15616;SDS011;7908;51.688;7.130;2023-04-23T11:14:10;6.23;;;2.20;;
15616;SDS011;7908;51.688;7.130;2023-04-23T11:16:41;5.53;;;2.00;;
15616;SDS011;7908;51.688;7.130;2023-04-23T11:19:10;5.23;;;1.73;;
15616;SDS011;7908;51.688;7.130;2023-04-23T11:22:02;3.13;;;1.60;;
15616;SDS011;7908;51.688;7.130;2023-04-23T11:24:32;3.27;;;1.50;;
15616;SDS011;7908;51.688;7.130;2023-04-23T11:27:09;3.60;;;1.60;;
15616;SDS011;7908;51.688;7.130;2023-04-23T11:29:40;3.33;;;1.43;;
15616;SDS011;7908;51.688;7.130;2023-04-23T11:32:11;3.47;;;1.67;;
15616;SDS011;7908;51.688;7.130;2023-04-23T11:34:41;3.70;;;1.80;;
15616;SDS011;7908;51.688;7.130;2023-04-23T11:37:13;2.55;;;1.70;;
15616;SDS011;7908;51.688;7.130;2023-04-23T11:39:43;2.75;;;1.48;;
15616;SDS011;7908;51.688;7.130;2023-04-23T11:42:13;2.10;;;1.30;;
15616;SDS011;7908;51.688;7.130;2023-04-23T11:44:45;2.65;;;1.52;;
15616;SDS011;7908;51.688;7.130;2023-04-23T11:47:15;3.90;;;2.05;;
15616;SDS011;7908;51.688;7.130;2023-04-23T11:49:44;2.35;;;1.50;;
15616;SDS011;7908;51.688;7.130;2023-04-23T11:52:17;3.42;;;1.80;;
15616;SDS011;7908;51.688;7.130;2023-04-23T11:54:46;4.15;;;1.50;;
15616;SDS011;7908;51.688;7.130;2023-04-23T11:57:15;3.17;;;1.85;;
15616;SDS011;7908;51.688;7.130;2023-04-23T11:59:44;6.43;;;1.38;;
15616;SDS011;7908;51.688;7.130;2023-04-23T12:02:12;6.32;;;1.15;;
15616;SDS011;7908;51.688;7.130;2023-04-23T12:04:42;2.15;;;1.27;;
15616;SDS011;7908;51.688;7.130;2023-04-23T12:07:11;3.53;;;1.87;;
15616;SDS011;7908;51.688;7.130;2023-04-23T12:09:53;2.80;;;1.80;;
15616;SDS011;7908;51.688;7.130;2023-04-23T12:12:31;1.93;;;1.40;;
15616;SDS011;7908;51.688;7.130;2023-04-23T12:15:04;1.70;;;1.30;;
15616;SDS011;7908;51.688;7.130;2023-04-23T12:17:34;2.00;;;1.30;;
15616;SDS011;7908;51.688;7.130;2023-04-23T12:20:03;2.70;;;1.40;;
15616;SDS011;7908;51.688;7.130;2023-04-23T12:22:33;2.83;;;1.77;;
15616;SDS011;7908;51.688;7.130;2023-04-23T12:25:03;3.20;;;2.40;;
15616;SDS011;7908;51.688;7.130;2023-04-23T12:27:37;4.60;;;3.43;;
15616;SDS011;7908;51.688;7.130;2023-04-23T12:30:08;5.83;;;4.80;;
15616;SDS011;7908;51.688;7.130;2023-04-23T12:32:38;2.37;;;1.60;;
15616;SDS011;7908;51.688;7.130;2023-04-23T12:35:08;1.80;;;1.20;;
15616;SDS011;7908;51.688;7.130;2023-04-23T12:37:37;2.33;;;1.20;;
15616;SDS011;7908;51.688;7.130;2023-04-23T12:40:08;2.00;;;1.00;;
15616;SDS011;7908;51.688;7.130;2023-04-23T12:42:38;1.53;;;1.10;;
15616;SDS011;7908;51.688;7.130;2023-04-23T12:45:08;3.27;;;1.37;;
15616;SDS011;7908;51.688;7.130;2023-04-23T12:47:37;2.20;;;1.00;;
15616;SDS011;7908;51.688;7.130;2023-04-23T12:50:06;1.93;;;1.10;;
15616;SDS011;7908;51.688;7.130;2023-04-23T12:52:36;2.23;;;0.93;;
15616;SDS011;7908;51.688;7.130;2023-04-23T12:55:05;1.37;;;0.87;;
15616;SDS011;7908;51.688;7.130;2023-04-23T12:57:35;2.60;;;1.03;;
15616;SDS011;7908;51.688;7.130;2023-04-23T13:00:05;3.30;;;1.40;;
15616;SDS011;7908;51.688;7.130;2023-04-23T13:02:35;2.83;;;1.10;;
15616;SDS011;7908;51.688;7.130;2023-04-23T13:05:04;4.30;;;1.60;;
15616;SDS011;7908;51.688;7.130;2023-04-23T13:07:34;3.77;;;1.30;;
15616;SDS011;7908;51.688;7.130;2023-04-23T13:10:03;3.30;;;1.33;;
15616;SDS011;7908;51.688;7.130;2023-04-23T13:12:32;3.63;;;1.23;;
15616;SDS011;7908;51.688;7.130;2023-04-23T13:15:03;4.18;;;1.27;;
15616;SDS011;7908;51.688;7.130;2023-04-23T13:17:34;2.60;;;1.10;;
15616;SDS011;7908;51.688;7.130;2023-04-23T13:20:05;3.03;;;0.90;;
15616;SDS011;7908;51.688;7.130;2023-04-23T13:22:36;3.28;;;1.25;;
15616;SDS011;7908;51.688;7.130;2023-04-23T13:25:06;3.45;;;1.30;;
15616;SDS011;7908;51.688;7.130;2023-04-23T13:27:35;3.13;;;0.98;;
15616;SDS011;7908;51.688;7.130;2023-04-23T13:30:08;4.13;;;1.33;;
15616;SDS011;7908;51.688;7.130;2023-04-23T13:32:37;3.33;;;1.20;;
15616;SDS011;7908;51.688;7.130;2023-04-23T13:35:07;2.38;;;1.20;;
15616;SDS011;7908;51.688;7.130;2023-04-23T13:37:37;2.28;;;1.08;;
15616;SDS011;7908;51.688;7.130;2023-04-23T13:40:07;2.17;;;0.95;;
15616;SDS011;7908;51.688;7.130;2023-04-23T13:42:36;3.58;;;0.85;;
15616;SDS011;7908;51.688;7.130;2023-04-23T13:45:06;1.58;;;0.90;;
15616;SDS011;7908;51.688;7.130;2023-04-23T13:47:40;1.90;;;0.80;;
15616;SDS011;7908;51.688;7.130;2023-04-23T13:50:09;2.22;;;1.10;;
15616;SDS011;7908;51.688;7.130;2023-04-23T13:52:38;1.63;;;0.90;;
15616;SDS011;7908;51.688;7.130;2023-04-23T13:55:07;1.35;;;0.80;;
15616;SDS011;7908;51.688;7.130;2023-04-23T13:57:36;5.60;;;3.00;;
15616;SDS011;7908;51.688;7.130;2023-04-23T14:00:06;1.98;;;1.42;;
15616;SDS011;7908;51.688;7.130;2023-04-23T14:02:37;4.28;;;1.98;;
15616;SDS011;7908;51.688;7.130;2023-04-23T14:05:07;6.07;;;2.13;;
15616;SDS011;7908;51.688;7.130;2023-04-23T14:07:36;3.60;;;0.75;;
15616;SDS011;7908;51.688;7.130;2023-04-23T14:10:06;2.80;;;1.38;;
15616;SDS011;7908;51.688;7.130;2023-04-23T14:12:35;2.83;;;0.90;;
15616;SDS011;7908;51.688;7.130;2023-04-23T14:15:05;2.90;;;0.80;;
15616;SDS011;7908;51.688;7.130;2023-04-23T14:17:37;2.35;;;0.70;;
15616;SDS011;7908;51.688;7.130;2023-04-23T14:20:08;2.97;;;1.00;;
15616;SDS011;7908;51.688;7.130;2023-04-23T14:22:39;1.40;;;0.57;;
15616;SDS011;7908;51.688;7.130;2023-04-23T14:25:09;2.78;;;1.10;;
15616;SDS011;7908;51.688;7.130;2023-04-23T14:27:44;2.47;;;1.00;;
15616;SDS011;7908;51.688;7.130;2023-04-23T14:30:14;3.10;;;1.17;;
15616;SDS011;7908;51.688;7.130;2023-04-23T14:32:47;3.05;;;1.20;;
15616;SDS011;7908;51.688;7.130;2023-04-23T14:35:16;2.10;;;1.00;;
15616;SDS011;7908;51.688;7.130;2023-04-23T14:38:01;2.30;;;1.63;;
15616;SDS011;7908;51.688;7.130;2023-04-23T14:40:30;2.78;;;1.30;;
15616;SDS011;7908;51.688;7.130;2023-04-23T14:42:59;4.20;;;1.70;;
15616;SDS011;7908;51.688;7.130;2023-04-23T14:45:41;3.85;;;1.38;;
15616;SDS011;7908;51.688;7.130;2023-04-23T14:48:11;4.15;;;1.40;;
15616;SDS011;7908;51.688;7.130;2023-04-23T14:50:40;2.25;;;1.60;;
15616;SDS011;7908;51.688;7.130;2023-04-23T14:53:09;4.07;;;2.00;;
15616;SDS011;7908;51.688;7.130;2023-04-23T14:55:38;3.05;;;1.42;;
15616;SDS011;7908;51.688;7.130;2023-04-23T14:58:09;1.95;;;1.00;;
15616;SDS011;7908;51.688;7.130;2023-04-23T15:00:38;5.30;;;1.52;;
15616;SDS011;7908;51.688;7.130;2023-04-23T15:03:08;7.97;;;3.83;;
15616;SDS011;7908;51.688;7.130;2023-04-23T15:05:39;3.45;;;1.13;;